Time;durP1;ratioP1;P1;durP2;ratioP2;P2;SDS_P1;SDS_P2;PMS_P1;PMS_P2;Temp;Humidity;BMP_temperature;BMP_pressure;BME280_temperature;BME280_humidity;BME280_pressure;Samples;Min_cycle;Max_cycle;Signal;HPM_P1;HPM_P2
2022/07/13 00:00:28;;;;;;;1.67;1.05;;;;;;;;;;5052322;28;20271;-84
2022/07/13 00:02:55;;;;;;;1.20;1.10;;;;;;;;;;5051884;28;20217;-84
2022/07/13 00:05:37;;;;;;;1.17;0.98;;;;;;;;;;5054757;28;20237;-84
2022/07/13 00:08:06;;;;;;;6.25;1.30;;;;;;;;;;5076671;28;20230;-84
2022/07/13 00:10:33;;;;;;;2.47;1.25;;;;;;;;;;5080304;28;20209;-84
2022/07/13 00:13:00;;;;;;;1.47;1.03;;;;;;;;;;5056937;28;20233;-84
2022/07/13 00:15:27;;;;;;;1.83;1.35;;;;;;;;;;5056197;28;20229;-84
2022/07/13 00:17:54;;;;;;;2.70;1.38;;;;;;;;;;5055813;28;20611;-84
2022/07/13 00:20:21;;;;;;;1.93;1.07;;;;;;;;;;5055959;28;20206;-84
2022/07/13 00:22:48;;;;;;;2.28;1.20;;;;;;;;;;5055501;28;20206;-84
2022/07/13 00:25:17;;;;;;;1.50;1.13;;;;;;;;;;5055840;28;20288;-84
2022/07/13 00:27:44;;;;;;;1.25;1.15;;;;;;;;;;5055547;28;20297;-84
2022/07/13 00:30:11;;;;;;;2.13;1.17;;;;;;;;;;5055785;28;20229;-84
2022/07/13 00:32:39;;;;;;;1.67;1.23;;;;;;;;;;5055640;28;20627;-84
2022/07/13 00:35:06;;;;;;;2.00;1.23;;;;;;;;;;5054898;28;20237;-84
2022/07/13 00:37:33;;;;;;;2.47;1.30;;;;;;;;;;5055805;28;20206;-84
2022/07/13 00:40:00;;;;;;;1.23;1.13;;;;;;;;;;5054897;28;20260;-84
2022/07/13 00:42:29;;;;;;;0.98;0.82;;;;;;;;;;5055280;28;20255;-84
2022/07/13 00:44:56;;;;;;;1.25;1.15;;;;;;;;;;5054709;28;20639;-84
2022/07/13 00:47:23;;;;;;;1.00;1.00;;;;;;;;;;5055455;28;20255;-84
2022/07/13 00:49:51;;;;;;;1.10;1.10;;;;;;;;;;5054266;28;20240;-84
2022/07/13 00:52:18;;;;;;;2.10;1.20;;;;;;;;;;5054581;28;20580;-84
2022/07/13 00:54:45;;;;;;;3.37;1.30;;;;;;;;;;5054742;28;20241;-84
2022/07/13 00:57:13;;;;;;;1.20;1.20;;;;;;;;;;5055077;28;20229;-84
2022/07/13 00:59:42;;;;;;;1.00;1.00;;;;;;;;;;5054421;28;20241;-84
2022/07/13 01:02:09;;;;;;;1.20;1.00;;;;;;;;;;5054640;28;20213;-84
2022/07/13 01:04:36;;;;;;;1.17;1.17;;;;;;;;;;5052778;28;20713;-84
2022/07/13 01:07:03;;;;;;;1.37;1.27;;;;;;;;;;5052650;28;20220;-84
2022/07/13 01:09:30;;;;;;;1.20;1.20;;;;;;;;;;5054367;28;20260;-84
2022/07/13 01:11:57;;;;;;;1.00;1.00;;;;;;;;;;5054914;28;20240;-84
2022/07/13 01:14:25;;;;;;;1.13;1.03;;;;;;;;;;5053509;28;20238;-84
2022/07/13 01:16:54;;;;;;;0.90;0.90;;;;;;;;;;5053921;28;20240;-84
2022/07/13 01:19:22;;;;;;;1.40;1.30;;;;;;;;;;5054105;28;20609;-84
2022/07/13 01:21:52;;;;;;;1.10;1.10;;;;;;;;;;5054210;28;20673;-84
2022/07/13 01:24:21;;;;;;;4.53;1.10;;;;;;;;;;5053732;28;20234;-84
2022/07/13 01:26:50;;;;;;;1.40;1.30;;;;;;;;;;5054591;28;20203;-84
2022/07/13 01:29:17;;;;;;;1.10;1.10;;;;;;;;;;5053948;28;20237;-84
2022/07/13 01:31:44;;;;;;;2.20;1.33;;;;;;;;;;5054052;28;20228;-84
2022/07/13 01:34:11;;;;;;;1.38;1.10;;;;;;;;;;5053789;28;20249;-84
2022/07/13 01:36:39;;;;;;;1.10;1.10;;;;;;;;;;5054294;28;20202;-84
2022/07/13 01:39:07;;;;;;;1.27;1.17;;;;;;;;;;5053633;28;20246;-84
2022/07/13 01:41:35;;;;;;;1.23;1.13;;;;;;;;;;5054263;28;20264;-84
2022/07/13 01:44:02;;;;;;;1.33;1.20;;;;;;;;;;5053613;28;20237;-84
2022/07/13 01:46:30;;;;;;;1.17;1.13;;;;;;;;;;5054266;28;20237;-84
2022/07/13 01:48:57;;;;;;;0.95;0.95;;;;;;;;;;5053544;28;20671;-84
2022/07/13 01:51:24;;;;;;;1.00;1.00;;;;;;;;;;5054276;28;20210;-84
2022/07/13 01:53:51;;;;;;;1.13;1.13;;;;;;;;;;5053613;28;20308;-84
2022/07/13 01:56:18;;;;;;;1.40;1.30;;;;;;;;;;5053769;28;20736;-84
2022/07/13 01:58:47;;;;;;;1.10;1.10;;;;;;;;;;5053124;28;20238;-84
2022/07/13 02:01:14;;;;;;;1.40;1.30;;;;;;;;;;5053889;28;20213;-84
2022/07/13 02:03:41;;;;;;;1.20;1.10;;;;;;;;;;5053758;28;20240;-84
2022/07/13 02:06:08;;;;;;;0.90;0.90;;;;;;;;;;5053865;28;20222;-84
2022/07/13 02:08:35;;;;;;;1.02;0.93;;;;;;;;;;5053339;28;20238;-84
2022/07/13 02:11:02;;;;;;;1.10;1.10;;;;;;;;;;5054020;28;20205;-84
2022/07/13 02:13:29;;;;;;;1.30;1.20;;;;;;;;;;5053463;28;20237;-84
2022/07/13 02:15:58;;;;;;;1.13;1.13;;;;;;;;;;5053844;28;20320;-84
2022/07/13 02:18:25;;;;;;;2.05;1.10;;;;;;;;;;5053192;28;20238;-84
2022/07/13 02:20:52;;;;;;;1.60;1.20;;;;;;;;;;5053548;28;20209;-84
2022/07/13 02:23:21;;;;;;;1.30;1.23;;;;;;;;;;5053163;28;20618;-84
2022/07/13 02:25:48;;;;;;;1.03;0.93;;;;;;;;;;5053690;28;20681;-84
2022/07/13 02:28:15;;;;;;;1.27;1.20;;;;;;;;;;5052920;28;20645;-84
2022/07/13 02:30:42;;;;;;;1.90;1.33;;;;;;;;;;5058362;28;20206;-84
2022/07/13 02:33:11;;;;;;;2.35;1.20;;;;;;;;;;5053520;28;20600;-84
2022/07/13 02:35:38;;;;;;;0.90;0.90;;;;;;;;;;5053350;28;20263;-84
2022/07/13 02:38:05;;;;;;;1.38;1.27;;;;;;;;;;5052796;28;20683;-84
2022/07/13 02:40:33;;;;;;;2.38;1.20;;;;;;;;;;5053553;28;20202;-84
2022/07/13 02:43:00;;;;;;;1.35;1.25;;;;;;;;;;5052819;28;20592;-84
2022/07/13 02:45:28;;;;;;;1.57;1.30;;;;;;;;;;5053395;28;20233;-84
2022/07/13 02:47:55;;;;;;;1.17;1.17;;;;;;;;;;5052835;28;20202;-84
2022/07/13 02:50:23;;;;;;;4.23;1.40;;;;;;;;;;5055186;28;20198;-84
2022/07/13 02:52:52;;;;;;;1.33;1.23;;;;;;;;;;5052550;28;20313;-84
2022/07/13 02:55:19;;;;;;;1.30;1.20;;;;;;;;;;5053459;28;20226;-84
2022/07/13 02:57:46;;;;;;;1.50;1.40;;;;;;;;;;5052740;28;20616;-84
2022/07/13 03:00:14;;;;;;;1.20;1.10;;;;;;;;;;5052951;28;20670;-84
2022/07/13 03:02:41;;;;;;;1.00;1.00;;;;;;;;;;5052323;28;20229;-84
2022/07/13 03:05:09;;;;;;;1.43;1.17;;;;;;;;;;5053443;28;20226;-84
2022/07/13 03:07:37;;;;;;;2.40;1.30;;;;;;;;;;5052773;28;20203;-84
2022/07/13 03:10:04;;;;;;;1.93;1.33;;;;;;;;;;5052385;28;20236;-84
2022/07/13 03:12:31;;;;;;;1.70;1.03;;;;;;;;;;5052565;28;20206;-84
2022/07/13 03:14:59;;;;;;;1.10;1.10;;;;;;;;;;5052022;28;20244;-84
2022/07/13 03:17:26;;;;;;;1.80;1.30;;;;;;;;;;5052870;28;20210;-84
2022/07/13 03:19:53;;;;;;;1.47;1.20;;;;;;;;;;5052107;28;20238;-85
2022/07/13 03:22:20;;;;;;;1.40;1.30;;;;;;;;;;5052989;28;20577;-85
2022/07/13 03:24:49;;;;;;;1.33;1.23;;;;;;;;;;5052359;28;20279;-84
2022/07/13 03:27:16;;;;;;;2.33;1.10;;;;;;;;;;5052385;28;20241;-84
2022/07/13 03:29:43;;;;;;;1.60;1.40;;;;;;;;;;5051865;28;20233;-84
2022/07/13 03:32:10;;;;;;;1.60;1.50;;;;;;;;;;5052523;28;20217;-84
2022/07/13 03:34:37;;;;;;;2.83;1.50;;;;;;;;;;5051648;28;20718;-84
2022/07/13 03:37:04;;;;;;;1.73;1.50;;;;;;;;;;5052366;28;20202;-84
2022/07/13 03:39:31;;;;;;;1.93;1.40;;;;;;;;;;5051143;28;20238;-84
2022/07/13 03:42:00;;;;;;;2.00;1.43;;;;;;;;;;5051877;28;20213;-84
2022/07/13 03:44:27;;;;;;;1.30;1.20;;;;;;;;;;5051660;28;20765;-84
2022/07/13 03:46:54;;;;;;;1.30;1.20;;;;;;;;;;5052091;28;20669;-84
2022/07/13 03:49:21;;;;;;;1.40;1.30;;;;;;;;;;5051842;28;20238;-84
2022/07/13 03:51:48;;;;;;;1.30;1.30;;;;;;;;;;5052164;28;20214;-84
2022/07/13 03:54:15;;;;;;;1.30;1.20;;;;;;;;;;5051570;28;20241;-84
2022/07/13 03:56:42;;;;;;;1.40;1.30;;;;;;;;;;5051897;28;20211;-84
2022/07/13 03:59:11;;;;;;;1.30;1.20;;;;;;;;;;5051773;28;20280;-83
2022/07/13 04:01:38;;;;;;;1.60;1.50;;;;;;;;;;5052177;28;20213;-84
2022/07/13 04:04:05;;;;;;;1.20;1.20;;;;;;;;;;5051809;28;20226;-84
2022/07/13 04:06:32;;;;;;;1.43;1.37;;;;;;;;;;5052427;28;20573;-84
2022/07/13 04:08:59;;;;;;;2.33;1.33;;;;;;;;;;5051809;28;20238;-84
2022/07/13 04:11:26;;;;;;;1.50;1.40;;;;;;;;;;5052189;28;20213;-84
2022/07/13 04:13:53;;;;;;;1.57;1.47;;;;;;;;;;5051416;28;20284;-84
2022/07/13 04:16:22;;;;;;;1.20;1.20;;;;;;;;;;5051938;28;20237;-84
2022/07/13 04:18:49;;;;;;;1.30;1.30;;;;;;;;;;5051750;28;20249;-84
2022/07/13 04:21:16;;;;;;;1.40;1.30;;;;;;;;;;5051805;28;20210;-84
2022/07/13 04:23:43;;;;;;;1.07;1.00;;;;;;;;;;5051644;28;20230;-84
2022/07/13 04:26:10;;;;;;;4.93;1.20;;;;;;;;;;5051812;28;20238;-84
2022/07/13 04:28:37;;;;;;;1.50;1.40;;;;;;;;;;5051744;28;20238;-84
2022/07/13 04:31:04;;;;;;;1.90;1.27;;;;;;;;;;5051914;28;20210;-84
2022/07/13 04:33:33;;;;;;;1.53;1.43;;;;;;;;;;5051510;28;20234;-84
2022/07/13 04:36:00;;;;;;;2.20;1.30;;;;;;;;;;5051879;28;20229;-84
2022/07/13 04:38:27;;;;;;;1.60;1.50;;;;;;;;;;5051568;28;20287;-84
2022/07/13 04:40:54;;;;;;;1.60;1.50;;;;;;;;;;5051429;28;20206;-85
2022/07/13 04:43:21;;;;;;;2.60;1.50;;;;;;;;;;5051429;28;20233;-85
2022/07/13 04:45:49;;;;;;;1.90;1.40;;;;;;;;;;5051707;28;20260;-85
2022/07/13 04:48:16;;;;;;;2.83;1.60;;;;;;;;;;5051825;28;20234;-85
2022/07/13 04:50:44;;;;;;;1.47;1.33;;;;;;;;;;5052117;28;20206;-85
2022/07/13 04:53:11;;;;;;;1.13;1.13;;;;;;;;;;5054507;28;20236;-84
2022/07/13 04:55:38;;;;;;;1.40;1.30;;;;;;;;;;5054795;28;20233;-85
2022/07/13 04:58:05;;;;;;;2.73;1.43;;;;;;;;;;5054261;28;20230;-85
2022/07/13 05:00:32;;;;;;;2.60;1.53;;;;;;;;;;5055439;28;20572;-85
2022/07/13 05:03:00;;;;;;;2.80;1.50;;;;;;;;;;5054974;28;20221;-85
2022/07/13 05:05:30;;;;;;;2.47;1.40;;;;;;;;;;5055314;28;20222;-85
2022/07/13 05:07:59;;;;;;;1.60;1.50;;;;;;;;;;5054792;28;20190;-85
2022/07/13 05:10:26;;;;;;;1.33;1.30;;;;;;;;;;5056158;28;20198;-82
2022/07/13 05:12:53;;;;;;;1.50;1.40;;;;;;;;;;5057583;28;20232;-82
2022/07/13 05:15:20;;;;;;;2.83;1.40;;;;;;;;;;5058208;28;20237;-82
2022/07/13 05:17:47;;;;;;;1.40;1.10;;;;;;;;;;5057537;28;20210;-82
2022/07/13 05:20:14;;;;;;;1.47;1.43;;;;;;;;;;5058633;28;20217;-82
2022/07/13 05:22:41;;;;;;;1.37;1.30;;;;;;;;;;5056878;28;20214;-84
2022/07/13 05:25:10;;;;;;;1.30;1.20;;;;;;;;;;5055872;28;20226;-82
2022/07/13 05:27:40;;;;;;;0.90;0.90;;;;;;;;;;5055358;28;20209;-82
2022/07/13 05:30:08;;;;;;;1.47;1.37;;;;;;;;;;5054088;28;20221;-82
2022/07/13 05:32:35;;;;;;;1.40;1.30;;;;;;;;;;5054511;28;20206;-82
2022/07/13 05:35:02;;;;;;;1.40;1.30;;;;;;;;;;5053704;28;20237;-82
2022/07/13 05:37:29;;;;;;;3.30;1.50;;;;;;;;;;5053858;28;20202;-82
2022/07/13 05:39:56;;;;;;;1.63;1.13;;;;;;;;;;5054038;28;20321;-83
2022/07/13 05:42:25;;;;;;;1.20;1.20;;;;;;;;;;5054263;28;20214;-82
2022/07/13 05:44:52;;;;;;;1.23;1.23;;;;;;;;;;5053580;28;20761;-82
2022/07/13 05:47:19;;;;;;;1.40;1.30;;;;;;;;;;5054563;28;20217;-82
2022/07/13 05:49:47;;;;;;;1.60;1.50;;;;;;;;;;5053399;28;20237;-82
2022/07/13 05:52:14;;;;;;;1.27;1.20;;;;;;;;;;5053913;28;20213;-82
2022/07/13 05:54:41;;;;;;;1.10;1.10;;;;;;;;;;5053301;28;20581;-82
2022/07/13 05:57:08;;;;;;;2.23;1.27;;;;;;;;;;5054519;28;20202;-82
2022/07/13 05:59:36;;;;;;;1.50;1.40;;;;;;;;;;5053347;28;20238;-82
2022/07/13 06:02:03;;;;;;;4.40;1.50;;;;;;;;;;5053600;28;20214;-82
2022/07/13 06:04:30;;;;;;;1.30;1.20;;;;;;;;;;5053363;28;20783;-82
2022/07/13 06:06:57;;;;;;;1.50;1.40;;;;;;;;;;5056954;28;20279;-82
2022/07/13 06:09:24;;;;;;;1.93;1.30;;;;;;;;;;5056914;28;20234;-82
2022/07/13 06:11:51;;;;;;;1.92;1.30;;;;;;;;;;5054198;28;20220;-83
2022/07/13 06:14:18;;;;;;;1.33;1.23;;;;;;;;;;5053564;28;20263;-83
2022/07/13 06:16:47;;;;;;;1.27;1.10;;;;;;;;;;5053745;28;20202;-83
2022/07/13 06:19:14;;;;;;;2.30;1.38;;;;;;;;;;5049660;28;20237;-83
2022/07/13 06:21:41;;;;;;;1.42;1.33;;;;;;;;;;5035406;28;20853;-83
2022/07/13 06:24:08;;;;;;;1.10;1.10;;;;;;;;;;5047215;28;20256;-83
2022/07/13 06:26:36;;;;;;;2.42;1.08;;;;;;;;;;5048413;28;20288;-83
2022/07/13 06:29:03;;;;;;;6.78;1.60;;;;;;;;;;5051495;28;20642;-85
2022/07/13 06:31:30;;;;;;;2.03;1.38;;;;;;;;;;5051881;28;20206;-85
2022/07/13 06:33:58;;;;;;;3.28;1.58;;;;;;;;;;5062526;28;20718;-83
2022/07/13 06:36:25;;;;;;;2.55;1.20;;;;;;;;;;5065390;28;20221;-78
2022/07/13 06:38:52;;;;;;;1.25;1.20;;;;;;;;;;5062179;28;20588;-79
2022/07/13 06:41:20;;;;;;;1.20;1.20;;;;;;;;;;5071304;28;20197;-79
2022/07/13 06:43:47;;;;;;;3.88;1.23;;;;;;;;;;5069340;28;20233;-79
2022/07/13 06:46:14;;;;;;;1.50;1.40;;;;;;;;;;5058190;28;20226;-78
2022/07/13 06:48:41;;;;;;;1.15;1.10;;;;;;;;;;5056751;28;20934;-79
2022/07/13 06:51:09;;;;;;;1.50;1.10;;;;;;;;;;5058593;28;20206;-78
2022/07/13 06:53:36;;;;;;;6.45;1.58;;;;;;;;;;5057368;28;20240;-80
2022/07/13 06:56:04;;;;;;;4.57;1.40;;;;;;;;;;5057730;28;20234;-79
2022/07/13 06:58:31;;;;;;;3.05;1.70;;;;;;;;;;5057062;28;20242;-79
2022/07/13 07:00:58;;;;;;;5.32;1.48;;;;;;;;;;5059010;28;20206;-79
2022/07/13 07:03:25;;;;;;;3.50;1.40;;;;;;;;;;5057178;28;20237;-79
2022/07/13 07:05:55;;;;;;;1.52;1.40;;;;;;;;;;5057147;28;20232;-80
2022/07/13 07:08:24;;;;;;;2.00;1.52;;;;;;;;;;5056218;28;20260;-79
2022/07/13 07:10:51;;;;;;;3.03;1.33;;;;;;;;;;5056181;28;20609;-80
2022/07/13 07:13:18;;;;;;;1.10;0.98;;;;;;;;;;5048522;28;20237;-78
2022/07/13 07:15:45;;;;;;;1.08;1.00;;;;;;;;;;5037870;28;20234;-79
2022/07/13 07:18:13;;;;;;;1.52;1.27;;;;;;;;;;5036515;28;20234;-78
2022/07/13 07:20:40;;;;;;;1.60;1.20;;;;;;;;;;5047662;28;20221;-79
2022/07/13 07:23:07;;;;;;;1.08;1.00;;;;;;;;;;5055308;28;20230;-78
2022/07/13 07:25:35;;;;;;;1.17;0.95;;;;;;;;;;5057118;28;20257;-78
2022/07/13 07:28:02;;;;;;;1.15;0.90;;;;;;;;;;5054419;28;20236;-79
2022/07/13 07:30:29;;;;;;;3.10;1.30;;;;;;;;;;5055441;28;20217;-78
2022/07/13 07:32:56;;;;;;;0.80;0.80;;;;;;;;;;5056189;28;20206;-78
2022/07/13 07:35:23;;;;;;;1.02;0.90;;;;;;;;;;5056937;28;20292;-80
2022/07/13 07:37:51;;;;;;;1.17;1.08;;;;;;;;;;5055465;28;20214;-78
2022/07/13 07:40:18;;;;;;;2.38;1.02;;;;;;;;;;5055911;28;20256;-78
2022/07/13 07:42:46;;;;;;;0.98;0.90;;;;;;;;;;5050398;28;20213;-77
2022/07/13 07:45:14;;;;;;;5.60;1.20;;;;;;;;;;5052191;28;20222;-77
2022/07/13 07:47:41;;;;;;;2.42;1.25;;;;;;;;;;5052566;28;20205;-78
2022/07/13 07:50:09;;;;;;;7.10;1.50;;;;;;;;;;5057750;28;20202;-80
2022/07/13 07:52:36;;;;;;;2.15;1.23;;;;;;;;;;5050726;28;20674;-80
2022/07/13 07:55:03;;;;;;;2.65;1.30;;;;;;;;;;5051431;28;20237;-80
2022/07/13 07:57:31;;;;;;;4.28;1.15;;;;;;;;;;5051532;28;20221;-80
2022/07/13 07:59:59;;;;;;;1.90;1.23;;;;;;;;;;5044089;28;20230;-82
2022/07/13 08:02:26;;;;;;;1.85;1.65;;;;;;;;;;5031325;28;20686;-81
2022/07/13 08:04:53;;;;;;;5.43;1.55;;;;;;;;;;5030292;28;20238;-82
2022/07/13 08:07:20;;;;;;;2.80;1.13;;;;;;;;;;5031300;28;20199;-83
2022/07/13 08:09:47;;;;;;;3.20;1.50;;;;;;;;;;5030158;28;20226;-83
2022/07/13 08:12:14;;;;;;;1.17;1.08;;;;;;;;;;5030279;28;20211;-82
2022/07/13 08:14:42;;;;;;;1.70;1.45;;;;;;;;;;5030982;28;20253;-81
2022/07/13 08:17:10;;;;;;;2.60;1.33;;;;;;;;;;5031727;28;20214;-82
2022/07/13 08:19:37;;;;;;;2.40;1.30;;;;;;;;;;5031088;28;20816;-82
2022/07/13 08:22:04;;;;;;;0.90;0.90;;;;;;;;;;5032769;28;20231;-80
2022/07/13 08:24:31;;;;;;;3.25;1.08;;;;;;;;;;5033271;28;20841;-79
2022/07/13 08:26:58;;;;;;;1.10;1.10;;;;;;;;;;5045215;28;20207;-81
2022/07/13 08:29:25;;;;;;;1.63;1.25;;;;;;;;;;5043098;28;20242;-81
2022/07/13 08:31:52;;;;;;;1.60;1.50;;;;;;;;;;5039967;28;20213;-81
2022/07/13 08:39:50;;;;;;;1.00;1.00;;;;;;;;;;5051342;28;20351;-81
2022/07/13 08:42:17;;;;;;;1.35;0.85;;;;;;;;;;5054197;28;20217;-81
2022/07/13 08:44:44;;;;;;;3.03;1.27;;;;;;;;;;5053967;28;20241;-81
2022/07/13 08:47:11;;;;;;;0.73;0.73;;;;;;;;;;5054198;28;20202;-81
2022/07/13 08:49:40;;;;;;;3.15;1.00;;;;;;;;;;5052887;28;20252;-81
2022/07/13 08:52:08;;;;;;;2.00;1.00;;;;;;;;;;5054318;28;20212;-81
2022/07/13 08:54:35;;;;;;;2.72;1.13;;;;;;;;;;5053646;28;20264;-80
2022/07/13 08:57:02;;;;;;;0.80;0.80;;;;;;;;;;5054221;28;20226;-81
2022/07/13 08:59:29;;;;;;;0.80;0.80;;;;;;;;;;5052730;28;20237;-81
2022/07/13 09:01:57;;;;;;;1.95;1.35;;;;;;;;;;5062949;28;20212;-82
2022/07/13 09:04:24;;;;;;;2.72;0.70;;;;;;;;;;5072744;28;20233;-81
2022/07/13 09:06:52;;;;;;;1.20;0.80;;;;;;;;;;5075744;28;20237;-80
2022/07/13 09:09:26;;;;;;;2.72;0.75;;;;;;;;;;5074621;28;20324;-87
2022/07/13 09:11:54;;;;;;;1.08;0.70;;;;;;;;;;5074318;28;20236;-88
2022/07/13 09:14:26;;;;;;;1.15;0.80;;;;;;;;;;5073897;28;20237;-89
2022/07/13 09:16:54;;;;;;;0.85;0.85;;;;;;;;;;5058032;28;20236;-88
2022/07/13 09:19:25;;;;;;;0.60;0.60;;;;;;;;;;5055147;28;20253;-89
2022/07/13 09:22:08;;;;;;;0.88;0.68;;;;;;;;;;5033638;28;20764;-89
2022/07/13 09:24:43;;;;;;;1.75;0.70;;;;;;;;;;5033461;28;20399;-89
2022/07/13 09:27:10;;;;;;;1.67;0.68;;;;;;;;;;5034408;28;20210;-90
2022/07/13 09:29:37;;;;;;;1.85;0.90;;;;;;;;;;5033373;28;20238;-89
2022/07/13 09:32:08;;;;;;;0.75;0.68;;;;;;;;;;5033927;28;20202;-89
2022/07/13 09:34:46;;;;;;;3.00;0.70;;;;;;;;;;5033159;28;20664;-89
2022/07/13 09:37:15;;;;;;;2.88;0.95;;;;;;;;;;5032808;28;20226;-89
2022/07/13 09:40:05;;;;;;;0.68;0.68;;;;;;;;;;5033124;28;20246;-88
2022/07/13 09:42:33;;;;;;;2.67;0.60;;;;;;;;;;5033412;28;20527;-86
2022/07/13 09:47:48;;;;;;;0.90;0.70;;;;;;;;;;5033536;28;20656;-88
2022/07/13 09:50:17;;;;;;;0.50;0.47;;;;;;;;;;5053523;28;20240;-89
2022/07/13 09:52:46;;;;;;;0.70;0.70;;;;;;;;;;5052807;28;20206;-87
2022/07/13 09:55:14;;;;;;;0.50;0.47;;;;;;;;;;5053360;28;20257;-90
2022/07/13 09:57:45;;;;;;;0.70;0.60;;;;;;;;;;5052956;28;20205;-91
2022/07/13 10:00:17;;;;;;;0.40;0.40;;;;;;;;;;5061355;28;20278;-87
2022/07/13 10:02:45;;;;;;;0.95;0.47;;;;;;;;;;5072494;28;20201;-88
2022/07/13 10:05:12;;;;;;;1.02;0.60;;;;;;;;;;5072864;28;20230;-87
2022/07/13 10:07:40;;;;;;;1.23;0.70;;;;;;;;;;5072864;28;20216;-89
2022/07/13 10:10:09;;;;;;;0.40;0.40;;;;;;;;;;5072745;28;20811;-89
2022/07/13 10:12:37;;;;;;;0.63;0.63;;;;;;;;;;5072859;28;20205;-89
2022/07/13 10:15:04;;;;;;;0.73;0.70;;;;;;;;;;5072352;28;20245;-88
2022/07/13 10:17:31;;;;;;;0.55;0.55;;;;;;;;;;5072071;28;20233;-86
2022/07/13 10:20:02;;;;;;;3.28;0.50;;;;;;;;;;5072205;28;20241;-89
2022/07/13 10:22:32;;;;;;;1.63;0.60;;;;;;;;;;5072534;28;20202;-88
2022/07/13 10:25:00;;;;;;;0.65;0.60;;;;;;;;;;5071715;28;20260;-88
2022/07/13 10:27:29;;;;;;;1.45;0.45;;;;;;;;;;5072153;28;20205;-87
2022/07/13 10:29:57;;;;;;;0.63;0.63;;;;;;;;;;5071615;28;20642;-89
2022/07/13 10:32:26;;;;;;;0.40;0.40;;;;;;;;;;5072201;28;20300;-90
2022/07/13 10:34:54;;;;;;;0.40;0.40;;;;;;;;;;5071863;28;20928;-90
2022/07/13 10:37:22;;;;;;;2.63;0.40;;;;;;;;;;5072473;28;20237;-88
2022/07/13 10:40:08;;;;;;;0.60;0.60;;;;;;;;;;5071727;28;20237;-90
2022/07/13 10:42:50;;;;;;;1.15;0.40;;;;;;;;;;5072037;28;20205;-89
2022/07/13 10:45:32;;;;;;;0.47;0.47;;;;;;;;;;5071125;28;20221;-87
2022/07/13 10:48:02;;;;;;;1.10;0.60;;;;;;;;;;5071227;28;20213;-89
2022/07/13 10:50:34;;;;;;;1.85;0.60;;;;;;;;;;5072585;28;20209;-89
2022/07/13 10:53:01;;;;;;;1.35;0.57;;;;;;;;;;5072235;28;20696;-88
2022/07/13 10:55:32;;;;;;;2.10;0.70;;;;;;;;;;5072800;28;20221;-88
2022/07/13 10:58:00;;;;;;;0.52;0.50;;;;;;;;;;5071843;28;20237;-88
2022/07/13 11:00:43;;;;;;;0.57;0.57;;;;;;;;;;5072939;28;20202;-88
2022/07/13 11:03:26;;;;;;;0.65;0.65;;;;;;;;;;5071956;28;20233;-89
2022/07/13 11:06:04;;;;;;;0.60;0.60;;;;;;;;;;5071971;28;20312;-88
2022/07/13 11:08:31;;;;;;;2.05;0.63;;;;;;;;;;5071763;28;20282;-87
2022/07/13 11:11:10;;;;;;;0.50;0.50;;;;;;;;;;5072092;28;20284;-88
2022/07/13 11:13:37;;;;;;;0.73;0.70;;;;;;;;;;5071480;28;20256;-89
2022/07/13 11:16:05;;;;;;;1.48;0.65;;;;;;;;;;5072093;28;20256;-89
2022/07/13 11:18:35;;;;;;;0.38;0.38;;;;;;;;;;5071513;28;20229;-87
2022/07/13 11:21:04;;;;;;;0.73;0.65;;;;;;;;;;5071930;28;20195;-89
2022/07/13 11:26:32;;;;;;;1.55;0.70;;;;;;;;;;5071500;28;20232;-89
2022/07/13 11:29:05;;;;;;;0.88;0.68;;;;;;;;;;5069168;28;20244;-89
2022/07/13 11:31:33;;;;;;;0.90;0.90;;;;;;;;;;5072378;28;20666;-90
2022/07/13 11:34:01;;;;;;;4.20;0.77;;;;;;;;;;5071813;28;20240;-88
2022/07/13 11:36:29;;;;;;;0.85;0.85;;;;;;;;;;5072259;28;20229;-89
2022/07/13 11:38:56;;;;;;;1.48;0.80;;;;;;;;;;5071057;28;20630;-90
2022/07/13 11:41:23;;;;;;;3.15;1.00;;;;;;;;;;5072206;28;20734;-91
2022/07/13 11:43:51;;;;;;;0.98;0.73;;;;;;;;;;5071963;28;20261;-90
2022/07/13 11:46:23;;;;;;;1.23;0.80;;;;;;;;;;5072229;28;20225;-90
2022/07/13 11:48:58;;;;;;;0.80;0.80;;;;;;;;;;5071915;28;20236;-90
2022/07/13 11:51:27;;;;;;;2.38;0.93;;;;;;;;;;5071847;28;20624;-90
2022/07/13 11:53:54;;;;;;;2.33;0.73;;;;;;;;;;5071824;28;20233;-90
2022/07/13 11:56:22;;;;;;;2.00;0.85;;;;;;;;;;5072294;28;20237;-89
2022/07/13 11:58:49;;;;;;;3.38;0.90;;;;;;;;;;5071222;28;20237;-90
2022/07/13 12:01:18;;;;;;;0.65;0.57;;;;;;;;;;5074467;28;20296;-90
2022/07/13 12:03:48;;;;;;;1.30;0.85;;;;;;;;;;5075705;28;20229;-90
2022/07/13 12:06:15;;;;;;;2.78;1.00;;;;;;;;;;5076497;28;20221;-90
2022/07/13 12:08:44;;;;;;;0.73;0.73;;;;;;;;;;5074974;28;20319;-89
2022/07/13 12:11:14;;;;;;;2.13;0.70;;;;;;;;;;5075691;28;20213;-88
2022/07/13 12:13:42;;;;;;;1.30;0.88;;;;;;;;;;5075416;28;20661;-91
2022/07/13 12:16:11;;;;;;;1.10;0.60;;;;;;;;;;5075936;28;20229;-89
2022/07/13 12:18:57;;;;;;;0.63;0.63;;;;;;;;;;5074870;28;20320;-89
2022/07/13 12:21:24;;;;;;;3.70;0.82;;;;;;;;;;5075944;28;20217;-89
2022/07/13 12:23:53;;;;;;;2.28;0.75;;;;;;;;;;5075405;28;20266;-90
2022/07/13 12:26:20;;;;;;;0.60;0.57;;;;;;;;;;5076884;28;20233;-90
2022/07/13 12:28:47;;;;;;;0.60;0.60;;;;;;;;;;5076440;22;20230;-85
2022/07/13 12:31:14;;;;;;;0.93;0.55;;;;;;;;;;5028099;28;20206;-84
2022/07/13 12:33:42;;;;;;;1.30;0.65;;;;;;;;;;5015165;28;20232;-83
2022/07/13 12:36:10;;;;;;;3.47;0.85;;;;;;;;;;5015404;28;20555;-83
2022/07/13 12:38:37;;;;;;;1.80;0.60;;;;;;;;;;5021649;28;20250;-83
2022/07/13 12:41:05;;;;;;;2.20;0.57;;;;;;;;;;5035780;28;20247;-86
2022/07/13 12:43:32;;;;;;;0.55;0.55;;;;;;;;;;5036711;28;20242;-83
2022/07/13 12:46:01;;;;;;;1.70;0.60;;;;;;;;;;5057221;28;20480;-83
2022/07/13 12:48:29;;;;;;;0.73;0.73;;;;;;;;;;5064276;28;20320;-83
2022/07/13 12:51:00;;;;;;;3.20;0.65;;;;;;;;;;5044482;28;20214;-83
2022/07/13 12:53:27;;;;;;;0.70;0.60;;;;;;;;;;5062129;28;20237;-83
2022/07/13 12:55:56;;;;;;;0.60;0.43;;;;;;;;;;5054735;28;20209;-83
2022/07/13 12:58:38;;;;;;;0.47;0.47;;;;;;;;;;5054221;28;20240;-83
2022/07/13 13:01:06;;;;;;;0.93;0.70;;;;;;;;;;5039387;28;20202;-83
2022/07/13 13:03:33;;;;;;;0.55;0.50;;;;;;;;;;5035296;28;20238;-83
2022/07/13 13:06:00;;;;;;;1.20;0.60;;;;;;;;;;5055058;28;20210;-84
2022/07/13 13:08:27;;;;;;;1.98;1.00;;;;;;;;;;5054260;28;20252;-84
2022/07/13 13:10:54;;;;;;;0.38;0.38;;;;;;;;;;5055265;28;20206;-85
2022/07/13 13:13:21;;;;;;;0.38;0.38;;;;;;;;;;5053699;28;20651;-84
2022/07/13 13:15:48;;;;;;;0.38;0.38;;;;;;;;;;5054472;28;20213;-84
2022/07/13 13:18:17;;;;;;;0.47;0.20;;;;;;;;;;5053595;28;20300;-84
2022/07/13 13:20:44;;;;;;;0.75;0.25;;;;;;;;;;5054226;28;20611;-84
2022/07/13 13:23:11;;;;;;;0.30;0.30;;;;;;;;;;5053893;28;20230;-84
2022/07/13 13:25:38;;;;;;;0.75;0.20;;;;;;;;;;5054757;28;20236;-84
2022/07/13 13:28:05;;;;;;;0.35;0.32;;;;;;;;;;5053294;28;20260;-86
2022/07/13 13:30:43;;;;;;;0.73;0.52;;;;;;;;;;5054014;28;20210;-85
2022/07/13 13:33:10;;;;;;;0.85;0.50;;;;;;;;;;5053872;28;20229;-83
2022/07/13 13:35:39;;;;;;;0.95;0.70;;;;;;;;;;5055059;28;20274;-83
2022/07/13 13:38:09;;;;;;;0.40;0.40;;;;;;;;;;5056909;28;20234;-83
2022/07/13 13:40:37;;;;;;;3.33;0.40;;;;;;;;;;5056534;28;20206;-82
2022/07/13 13:43:04;;;;;;;1.60;0.50;;;;;;;;;;5054039;28;20292;-84
2022/07/13 13:45:31;;;;;;;0.30;0.30;;;;;;;;;;5053824;28;20624;-85
2022/07/13 13:47:58;;;;;;;0.40;0.40;;;;;;;;;;5052385;28;20662;-85
2022/07/13 13:50:25;;;;;;;1.75;0.55;;;;;;;;;;5052764;28;20210;-85
2022/07/13 13:52:54;;;;;;;0.20;0.20;;;;;;;;;;5051384;28;20730;-84
2022/07/13 13:55:21;;;;;;;0.75;0.50;;;;;;;;;;5052644;28;20676;-84
2022/07/13 13:57:48;;;;;;;0.30;0.30;;;;;;;;;;5051369;28;20769;-84
2022/07/13 14:00:15;;;;;;;0.50;0.50;;;;;;;;;;5052782;28;20226;-84
2022/07/13 14:02:42;;;;;;;0.40;0.40;;;;;;;;;;5051867;28;20210;-84
2022/07/13 14:05:10;;;;;;;0.98;0.30;;;;;;;;;;5052903;28;20237;-85
2022/07/13 14:07:37;;;;;;;0.40;0.22;;;;;;;;;;5052070;28;20679;-83
2022/07/13 14:10:07;;;;;;;3.40;0.50;;;;;;;;;;5051852;28;20329;-84
2022/07/13 14:12:34;;;;;;;0.60;0.47;;;;;;;;;;5052248;28;20730;-84
2022/07/13 14:15:01;;;;;;;0.77;0.50;;;;;;;;;;5052281;28;20756;-84
2022/07/13 14:17:29;;;;;;;1.08;0.45;;;;;;;;;;5052437;28;20329;-84
2022/07/13 14:19:56;;;;;;;0.30;0.30;;;;;;;;;;5051407;28;20232;-84
2022/07/13 14:22:23;;;;;;;1.23;0.43;;;;;;;;;;5052398;28;20206;-85
2022/07/13 14:24:56;;;;;;;0.40;0.40;;;;;;;;;;5051979;28;20658;-86
2022/07/13 14:27:24;;;;;;;3.90;0.50;;;;;;;;;;5052120;28;20249;-85
2022/07/13 14:29:51;;;;;;;1.63;0.20;;;;;;;;;;5050841;28;20797;-86
2022/07/13 14:32:19;;;;;;;0.20;0.20;;;;;;;;;;5053321;28;20827;-88
2022/07/13 14:34:46;;;;;;;0.47;0.30;;;;;;;;;;5051969;28;20720;-84
2022/07/13 14:37:13;;;;;;;0.28;0.28;;;;;;;;;;5052459;28;20260;-83
2022/07/13 14:39:40;;;;;;;0.75;0.50;;;;;;;;;;5052076;28;20234;-83
2022/07/13 14:42:07;;;;;;;0.50;0.50;;;;;;;;;;5053527;28;20206;-84
2022/07/13 14:44:35;;;;;;;0.50;0.50;;;;;;;;;;5052698;28;20234;-84
2022/07/13 14:47:02;;;;;;;0.38;0.38;;;;;;;;;;5053958;28;20213;-90
2022/07/13 14:49:29;;;;;;;0.70;0.70;;;;;;;;;;5051307;28;20316;-85
2022/07/13 14:51:56;;;;;;;2.05;0.57;;;;;;;;;;5052004;28;20210;-85
2022/07/13 14:54:23;;;;;;;0.52;0.52;;;;;;;;;;5052083;28;20233;-85
2022/07/13 14:56:51;;;;;;;2.28;0.80;;;;;;;;;;5051903;28;20259;-85
2022/07/13 14:59:18;;;;;;;2.13;0.40;;;;;;;;;;5051491;28;20245;-85